Time;durP1;ratioP1;P1;durP2;ratioP2;P2;SDS_P1;SDS_P2;PMS_P1;PMS_P2;Temp;Humidity;BMP_temperature;BMP_pressure;BME280_temperature;BME280_humidity;BME280_pressure;Samples;Min_cycle;Max_cycle;Signal;HPM_P1;HPM_P2
2022/07/07 00:00:40;;;;;;;8.32;4.82;;;;;;;18.44;95.41;101883.00;5073747;28;20119;-53
2022/07/07 00:03:09;;;;;;;9.15;5.20;;;;;;;18.41;95.80;101865.44;5069484;28;20102;-56
2022/07/07 00:05:40;;;;;;;9.27;5.05;;;;;;;18.37;96.26;101864.84;5071017;28;20049;-56
2022/07/07 00:08:09;;;;;;;9.00;4.60;;;;;;;18.37;96.42;101851.53;5074121;28;20048;-58
2022/07/07 00:10:37;;;;;;;8.00;4.55;;;;;;;18.35;96.39;101849.97;5071739;28;20044;-57
2022/07/07 00:13:06;;;;;;;8.18;4.35;;;;;;;18.33;96.75;101841.28;5068856;28;20048;-50
2022/07/07 00:15:36;;;;;;;8.48;4.60;;;;;;;18.31;96.58;101840.53;5073007;28;20049;-52
2022/07/07 00:18:04;;;;;;;10.02;4.80;;;;;;;18.33;96.64;101841.28;5073407;28;20068;-51
2022/07/07 00:20:32;;;;;;;8.88;4.43;;;;;;;18.33;96.58;101839.44;5073557;28;20052;-52
2022/07/07 00:23:00;;;;;;;8.52;4.60;;;;;;;18.31;96.76;101835.22;5073640;28;20109;-56
2022/07/07 00:25:28;;;;;;;8.55;4.47;;;;;;;18.29;97.06;101835.34;5073694;28;20094;-57
2022/07/07 00:27:56;;;;;;;9.85;4.93;;;;;;;18.26;97.38;101827.63;5073922;28;20048;-57
2022/07/07 00:30:24;;;;;;;9.48;4.60;;;;;;;18.23;97.99;101835.88;5073782;28;20543;-57
2022/07/07 00:32:54;;;;;;;8.63;4.20;;;;;;;18.20;98.18;101815.66;5073228;28;20055;-52
2022/07/07 00:35:22;;;;;;;8.13;4.30;;;;;;;18.22;98.29;101811.03;5072694;28;20515;-58
2022/07/07 00:37:50;;;;;;;9.57;4.60;;;;;;;18.29;97.66;101810.56;5073400;28;20127;-51
2022/07/07 00:40:18;;;;;;;8.52;4.47;;;;;;;18.30;98.31;101814.91;5074446;28;20040;-57
2022/07/07 00:42:46;;;;;;;8.27;4.40;;;;;;;18.31;98.44;101798.81;5074086;28;20541;-56
2022/07/07 00:45:14;;;;;;;9.95;4.60;;;;;;;18.34;98.67;101793.22;5073819;28;20045;-52
2022/07/07 00:47:42;;;;;;;9.35;4.30;;;;;;;18.29;99.29;101803.41;5072633;28;20079;-50
2022/07/07 00:50:12;;;;;;;8.60;4.55;;;;;;;18.33;99.05;101804.00;5070150;28;20502;-49
2022/07/07 00:52:40;;;;;;;7.55;4.15;;;;;;;18.37;98.40;101808.09;5072160;28;20098;-57
2022/07/07 00:55:09;;;;;;;10.45;5.15;;;;;;;18.31;99.61;101798.81;5072550;28;20080;-48
2022/07/07 00:57:38;;;;;;;10.30;5.15;;;;;;;18.29;99.79;101795.41;5068362;28;20048;-57
2022/07/07 01:00:09;;;;;;;10.10;5.95;;;;;;;18.32;100.00;101803.13;5071946;28;20044;-58
2022/07/07 01:02:38;;;;;;;9.93;5.97;;;;;;;18.30;100.00;101798.94;5073601;28;20082;-57
2022/07/07 01:05:08;;;;;;;10.60;5.95;;;;;;;18.28;100.00;101791.03;5071120;28;20033;-57
2022/07/07 01:07:38;;;;;;;10.00;5.70;;;;;;;18.33;100.00;101794.19;5070918;28;20407;-55
2022/07/07 01:10:08;;;;;;;12.57;6.28;;;;;;;18.32;100.00;101795.16;5067914;28;20458;-57
2022/07/07 01:12:39;;;;;;;11.40;6.38;;;;;;;18.28;100.00;101783.06;5072899;28;20503;-51
2022/07/07 01:15:09;;;;;;;10.48;6.28;;;;;;;18.30;100.00;101781.13;5069430;28;20036;-56
2022/07/07 01:17:38;;;;;;;9.23;6.30;;;;;;;18.28;100.00;101776.91;5069305;28;20048;-52
2022/07/07 01:20:09;;;;;;;11.23;6.53;;;;;;;18.22;100.00;101779.09;5069254;28;21318;-53
2022/07/07 01:22:40;;;;;;;9.93;6.47;;;;;;;18.17;100.00;101775.13;5072636;28;20115;-54
2022/07/07 01:25:09;;;;;;;12.13;6.90;;;;;;;18.24;100.00;101777.16;5072388;28;20090;-58
2022/07/07 01:27:37;;;;;;;10.65;5.55;;;;;;;18.24;100.00;101777.16;5069723;28;20055;-51
2022/07/07 01:30:06;;;;;;;9.48;6.63;;;;;;;18.21;100.00;101777.41;5072503;28;20127;-50
2022/07/07 01:32:35;;;;;;;11.48;6.35;;;;;;;18.18;100.00;101771.50;5071997;28;20048;-57
2022/07/07 01:35:04;;;;;;;13.25;6.60;;;;;;;18.18;100.00;101774.16;5070667;28;20053;-57
2022/07/07 01:37:34;;;;;;;13.32;7.00;;;;;;;18.22;100.00;101767.63;5071773;28;20047;-57
2022/07/07 01:40:03;;;;;;;11.65;6.07;;;;;;;18.26;100.00;101770.88;5067273;28;20503;-52
2022/07/07 01:42:33;;;;;;;12.35;6.97;;;;;;;18.22;100.00;101764.94;5067303;28;20036;-57
2022/07/07 01:45:01;;;;;;;10.75;6.07;;;;;;;18.18;100.00;101771.50;5070928;28;20787;-51
2022/07/07 01:47:30;;;;;;;13.60;7.03;;;;;;;18.20;100.00;101762.44;5071129;28;20536;-53
2022/07/07 01:49:58;;;;;;;12.23;7.05;;;;;;;18.20;100.00;101759.75;5068094;28;20044;-51
2022/07/07 01:52:26;;;;;;;12.45;5.95;;;;;;;18.20;100.00;101762.44;5069216;28;20482;-57
2022/07/07 01:54:54;;;;;;;10.20;6.13;;;;;;;18.28;100.00;101758.28;5071122;28;20053;-57
2022/07/07 01:57:22;;;;;;;12.88;5.78;;;;;;;18.26;100.00;101761.06;5068526;28;20048;-50
2022/07/07 01:59:51;;;;;;;12.18;6.35;;;;;;;18.29;100.00;101757.31;5070393;28;20048;-51
2022/07/07 02:02:19;;;;;;;12.98;6.15;;;;;;;18.28;100.00;101761.75;5068840;28;20094;-52
2022/07/07 02:04:47;;;;;;;10.57;5.65;;;;;;;18.30;100.00;101753.69;5071765;28;20048;-51
2022/07/07 02:07:15;;;;;;;11.15;5.85;;;;;;;18.25;100.00;101756.69;5071613;28;20063;-56
2022/07/07 02:09:43;;;;;;;10.60;5.43;;;;;;;18.21;100.00;101747.28;5064327;28;20126;-48
2022/07/07 02:12:11;;;;;;;10.70;5.20;;;;;;;18.24;100.00;101749.69;5068804;28;20052;-54
2022/07/07 02:14:39;;;;;;;9.65;4.88;;;;;;;18.25;100.00;101740.72;5069961;28;20036;-51
2022/07/07 02:17:09;;;;;;;9.30;4.40;;;;;;;18.28;100.00;101737.81;5067554;28;20040;-50
2022/07/07 02:19:37;;;;;;;10.15;4.90;;;;;;;18.24;100.00;101739.03;5071108;28;20044;-50
2022/07/07 02:22:08;;;;;;;9.52;4.65;;;;;;;18.28;100.00;101731.66;5071251;28;20117;-56
2022/07/07 02:24:36;;;;;;;10.20;5.00;;;;;;;18.28;100.00;101728.97;5069007;28;20053;-57
2022/07/07 02:27:05;;;;;;;11.00;5.35;;;;;;;18.27;100.00;101725.50;5066473;28;20503;-55
2022/07/07 02:29:33;;;;;;;9.43;5.07;;;;;;;18.28;100.00;101721.00;5069656;28;20505;-51
2022/07/07 02:32:01;;;;;;;9.80;4.00;;;;;;;18.30;100.00;101727.06;5071176;28;20052;-53
2022/07/07 02:34:30;;;;;;;7.75;4.40;;;;;;;18.28;100.00;101729.81;5071392;28;20047;-50
2022/07/07 02:36:58;;;;;;;8.70;4.50;;;;;;;18.30;100.00;101727.88;5070245;28;20044;-56
2022/07/07 02:39:26;;;;;;;11.70;4.47;;;;;;;18.25;100.00;101740.72;5071371;28;20048;-57
2022/07/07 02:41:54;;;;;;;9.98;4.55;;;;;;;18.12;100.00;101751.56;5066076;28;20048;-58
2022/07/07 02:44:23;;;;;;;6.57;3.45;;;;;;;17.84;100.00;101753.78;5069061;28;20479;-52
2022/07/07 02:46:51;;;;;;;5.68;2.30;;;;;;;17.70;100.00;101759.41;5071151;28;20066;-58
2022/07/07 02:49:19;;;;;;;6.65;2.13;;;;;;;17.52;100.00;101759.94;5071061;28;20044;-55
2022/07/07 02:51:48;;;;;;;4.57;2.00;;;;;;;17.41;100.00;101773.25;5070509;28;20063;-55
2022/07/07 02:54:17;;;;;;;4.07;2.33;;;;;;;17.27;100.00;101773.47;5067214;28;20049;-57
2022/07/07 02:56:45;;;;;;;7.13;2.65;;;;;;;17.23;100.00;101772.88;5066187;28;20048;-56
2022/07/07 02:59:13;;;;;;;6.35;2.90;;;;;;;17.22;100.00;101766.72;5070431;28;20040;-54
2022/07/07 03:01:41;;;;;;;6.38;2.80;;;;;;;17.17;100.00;101758.25;5070683;28;20052;-53
2022/07/07 03:04:09;;;;;;;5.88;3.05;;;;;;;17.12;100.00;101759.59;5070426;28;20128;-59
2022/07/07 03:06:37;;;;;;;5.13;2.50;;;;;;;17.14;100.00;101758.50;5063604;28;20057;-57
2022/07/07 03:09:07;;;;;;;5.50;2.60;;;;;;;17.06;100.00;101748.47;5067541;28;20122;-52
2022/07/07 03:11:35;;;;;;;7.32;2.85;;;;;;;16.96;100.00;101750.16;5067488;28;20044;-53
2022/07/07 03:14:03;;;;;;;6.25;2.42;;;;;;;16.94;100.00;101749.41;5068049;28;20051;-53
2022/07/07 03:16:31;;;;;;;5.78;1.83;;;;;;;17.01;100.00;101747.13;5070162;28;20102;-52
2022/07/07 03:18:59;;;;;;;7.05;2.40;;;;;;;16.96;100.00;101750.16;5067127;28;20047;-53
2022/07/07 03:21:27;;;;;;;4.18;2.00;;;;;;;16.93;100.00;101739.75;5070375;28;20036;-58
2022/07/07 03:23:55;;;;;;;4.43;2.20;;;;;;;16.90;100.00;101746.16;5069896;28;20484;-53
2022/07/07 03:26:24;;;;;;;4.82;2.47;;;;;;;16.89;100.00;101741.81;5070347;28;20051;-57
2022/07/07 03:28:53;;;;;;;4.55;2.08;;;;;;;16.83;100.00;101742.25;5064653;28;20048;-58
2022/07/07 03:31:21;;;;;;;4.32;2.28;;;;;;;16.84;100.00;101738.66;5066920;28;20098;-53
2022/07/07 03:33:49;;;;;;;4.82;2.25;;;;;;;16.82;100.00;101735.25;5069617;28;20063;-58
2022/07/07 03:36:17;;;;;;;5.40;2.33;;;;;;;16.79;100.00;101732.00;5066147;28;20045;-51
2022/07/07 03:38:45;;;;;;;5.85;2.60;;;;;;;16.78;100.00;101739.09;5068228;28;20044;-58
2022/07/07 03:41:13;;;;;;;5.30;2.30;;;;;;;16.71;100.00;101730.78;5068400;28;20048;-57
2022/07/07 03:43:43;;;;;;;5.80;3.10;;;;;;;16.71;100.00;101738.75;5066798;28;20055;-57
2022/07/07 03:46:11;;;;;;;6.20;2.67;;;;;;;16.69;100.00;101738.03;5072359;28;20044;-55
2022/07/07 03:48:39;;;;;;;4.25;2.50;;;;;;;16.75;100.00;101739.34;5073241;28;20056;-54
2022/07/07 03:51:08;;;;;;;6.57;3.03;;;;;;;16.71;100.00;101732.59;5073921;28;20503;-59
2022/07/07 03:53:36;;;;;;;6.28;2.85;;;;;;;16.67;100.00;101734.63;5073378;28;20519;-54
2022/07/07 03:56:05;;;;;;;6.20;3.13;;;;;;;16.64;100.00;101737.53;5068287;28;20048;-58
2022/07/07 03:58:33;;;;;;;4.85;2.45;;;;;;;16.72;100.00;101728.97;5069885;28;19920;-58
2022/07/07 04:01:02;;;;;;;4.50;2.70;;;;;;;16.72;100.00;101729.81;5072809;28;20040;-54
2022/07/07 04:03:30;;;;;;;6.18;3.30;;;;;;;16.63;100.00;101722.53;5073447;28;20388;-59
2022/07/07 04:05:59;;;;;;;6.65;2.72;;;;;;;16.55;100.00;101722.28;5073224;28;20102;-57
2022/07/07 04:08:27;;;;;;;6.38;2.85;;;;;;;16.57;100.00;101731.00;5073198;28;20036;-57
2022/07/07 04:10:55;;;;;;;5.32;3.13;;;;;;;16.59;100.00;101723.75;5072937;28;20054;-52
2022/07/07 04:13:23;;;;;;;6.25;3.10;;;;;;;16.67;100.00;101725.81;5072869;28;20499;-58
2022/07/07 04:15:52;;;;;;;5.22;2.72;;;;;;;16.74;100.00;101727.03;5072545;28;20040;-54
2022/07/07 04:18:22;;;;;;;7.55;3.90;;;;;;;16.69;100.00;101723.91;5072612;28;20071;-50
2022/07/07 04:20:50;;;;;;;6.68;3.25;;;;;;;16.69;100.00;101730.06;5068935;28;20047;-53
2022/07/07 04:23:18;;;;;;;6.45;3.55;;;;;;;16.56;100.00;101730.16;5069189;28;20040;-58
2022/07/07 04:25:46;;;;;;;7.22;3.35;;;;;;;16.66;100.00;101729.44;5071857;28;20055;-52
2022/07/07 04:28:14;;;;;;;6.18;3.53;;;;;;;16.71;100.00;101730.78;5072863;28;20396;-58
2022/07/07 04:30:42;;;;;;;7.03;3.10;;;;;;;16.81;100.00;101730.06;5072827;28;20059;-55
2022/07/07 04:33:11;;;;;;;7.85;3.30;;;;;;;16.67;100.00;101725.81;5071347;28;20119;-57
2022/07/07 04:35:40;;;;;;;7.10;3.08;;;;;;;16.52;100.00;101719.88;5069497;28;20052;-57
2022/07/07 04:38:08;;;;;;;7.90;2.70;;;;;;;16.57;100.00;101728.34;5073010;28;20426;-58
2022/07/07 04:40:37;;;;;;;7.43;2.40;;;;;;;16.43;100.00;101729.41;5067202;28;20048;-59
2022/07/07 04:43:05;;;;;;;7.18;2.33;;;;;;;16.45;100.00;101738.06;5070116;28;20127;-55
2022/07/07 04:45:33;;;;;;;4.85;2.35;;;;;;;16.49;100.00;101742.19;5072926;28;20682;-57
2022/07/07 04:48:01;;;;;;;4.90;2.05;;;;;;;16.38;100.00;101743.00;5073724;28;20120;-58
2022/07/07 04:50:29;;;;;;;3.72;1.75;;;;;;;16.47;100.00;101735.31;5073873;28;20040;-57
2022/07/07 04:52:58;;;;;;;4.13;1.45;;;;;;;16.34;100.00;101741.53;5072247;28;20079;-60
2022/07/07 04:55:26;;;;;;;4.00;1.52;;;;;;;16.43;100.00;101747.13;5070225;28;20040;-55
2022/07/07 04:57:54;;;;;;;4.80;1.50;;;;;;;16.40;100.00;101740.22;5068537;28;20128;-55
2022/07/07 05:00:23;;;;;;;3.97;1.48;;;;;;;16.39;100.00;101750.00;5070871;28;20052;-50
2022/07/07 05:02:51;;;;;;;5.18;1.60;;;;;;;16.34;100.00;101756.63;5070254;28;20049;-60
2022/07/07 05:05:19;;;;;;;5.35;1.48;;;;;;;16.36;100.00;101755.56;5072452;28;20165;-52
2022/07/07 05:07:47;;;;;;;5.10;1.80;;;;;;;16.35;100.00;101756.53;5069059;28;20119;-52
2022/07/07 05:10:17;;;;;;;4.90;1.60;;;;;;;16.36;100.00;101762.66;5069904;28;20080;-56
2022/07/07 05:12:45;;;;;;;6.30;1.90;;;;;;;16.31;100.00;101763.03;5072424;28;20048;-59
2022/07/07 05:15:13;;;;;;;7.30;1.92;;;;;;;16.23;100.00;101771.53;5072147;28;20036;-53
2022/07/07 05:17:41;;;;;;;7.95;2.35;;;;;;;16.31;100.00;101773.63;5069259;28;20456;-58
2022/07/07 05:20:10;;;;;;;6.57;2.15;;;;;;;16.39;100.00;101775.72;5068618;28;20071;-53
2022/07/07 05:22:38;;;;;;;6.43;1.98;;;;;;;16.35;100.00;101780.41;5072323;28;20053;-54
2022/07/07 05:25:06;;;;;;;8.05;1.90;;;;;;;16.40;100.00;101788.00;5068603;28;20055;-56
2022/07/07 05:27:36;;;;;;;5.45;1.52;;;;;;;16.39;100.00;101794.31;5067333;28;20379;-54
2022/07/07 05:30:05;;;;;;;6.53;1.70;;;;;;;16.50;100.00;101796.16;5070105;28;20452;-54
2022/07/07 05:32:33;;;;;;;6.75;1.80;;;;;;;16.53;100.00;101798.56;5071423;28;20427;-54
2022/07/07 05:35:01;;;;;;;7.40;1.65;;;;;;;16.44;100.00;101800.09;5072000;28;20115;-59
2022/07/07 05:37:29;;;;;;;7.57;1.50;;;;;;;16.39;100.00;101818.19;5070995;28;20041;-53
2022/07/07 05:39:57;;;;;;;7.15;1.50;;;;;;;16.25;100.00;101819.19;5071847;28;20061;-57
2022/07/07 05:42:25;;;;;;;8.95;2.17;;;;;;;16.27;100.00;101822.59;5071499;28;20061;-54
2022/07/07 05:44:54;;;;;;;7.85;2.05;;;;;;;16.18;100.00;101825.94;5071354;28;20436;-53
2022/07/07 05:47:22;;;;;;;5.28;1.25;;;;;;;16.30;100.00;101829.50;5072085;28;20499;-59
2022/07/07 05:49:50;;;;;;;7.25;1.27;;;;;;;16.27;100.00;101835.03;5071495;28;20102;-60
2022/07/07 05:52:18;;;;;;;9.50;1.70;;;;;;;16.24;100.00;101836.09;5068398;28;20487;-50
2022/07/07 05:54:46;;;;;;;8.13;1.77;;;;;;;16.18;100.00;101842.72;5070138;28;20048;-59
2022/07/07 05:57:15;;;;;;;10.82;1.90;;;;;;;16.12;100.00;101847.63;5072101;28;20102;-58
2022/07/07 05:59:43;;;;;;;8.10;1.67;;;;;;;16.25;100.00;101847.56;5071628;28;20055;-53
2022/07/07 06:02:12;;;;;;;9.07;1.70;;;;;;;16.28;100.00;101849.97;5071721;28;20182;-54
2022/07/07 06:04:41;;;;;;;8.95;1.83;;;;;;;16.26;100.00;101858.06;5070354;28;20067;-53
2022/07/07 06:07:09;;;;;;;6.82;1.25;;;;;;;16.28;100.00;101856.16;5071213;28;20060;-53
2022/07/07 06:09:37;;;;;;;8.30;1.50;;;;;;;16.22;100.00;101859.25;5072167;28;20064;-58
2022/07/07 06:12:06;;;;;;;10.43;1.63;;;;;;;16.23;100.00;101866.25;5070096;28;20039;-54
2022/07/07 06:14:34;;;;;;;10.63;1.80;;;;;;;16.33;100.00;101871.72;5067671;28;20049;-51
2022/07/07 06:17:12;;;;;;;9.02;1.23;;;;;;;16.25;100.00;101872.28;5068811;28;20426;-57
2022/07/07 06:19:50;;;;;;;9.25;1.88;;;;;;;16.25;100.00;101874.94;5071316;28;20044;-57
2022/07/07 06:22:18;;;;;;;8.57;1.65;;;;;;;16.29;100.00;101879.09;5072713;28;20047;-49
2022/07/07 06:24:46;;;;;;;9.50;1.73;;;;;;;16.30;100.00;101882.56;5072062;28;20138;-50
2022/07/07 06:27:14;;;;;;;8.30;1.52;;;;;;;16.19;100.00;101897.47;5067205;28;20060;-58
2022/07/07 06:29:42;;;;;;;10.10;1.60;;;;;;;16.09;100.00;101900.88;5069722;28;20033;-58
2022/07/07 06:32:10;;;;;;;6.90;1.20;;;;;;;16.04;100.00;101911.84;5072214;28;20132;-53
2022/07/07 06:34:38;;;;;;;7.88;1.55;;;;;;;15.96;100.00;101912.38;5072035;28;20048;-56
2022/07/07 06:37:08;;;;;;;8.68;1.77;;;;;;;16.02;100.00;101906.66;5071965;28;20060;-58
2022/07/07 06:39:36;;;;;;;8.82;1.65;;;;;;;15.89;100.00;101906.66;5068247;28;20045;-59
2022/07/07 06:42:05;;;;;;;10.57;1.67;;;;;;;16.04;100.00;101899.41;5067041;28;20418;-58
2022/07/07 06:44:34;;;;;;;7.30;1.58;;;;;;;16.18;100.00;101905.53;5071923;28;20056;-58
2022/07/07 06:47:02;;;;;;;8.93;1.60;;;;;;;16.26;100.00;101897.03;5069706;28;20052;-58
2022/07/07 06:49:30;;;;;;;12.55;1.92;;;;;;;16.25;100.00;101904.13;5068428;28;20113;-55
2022/07/07 06:51:58;;;;;;;8.20;1.67;;;;;;;16.15;100.00;101913.72;5071520;28;20053;-51
2022/07/07 06:54:28;;;;;;;11.95;1.58;;;;;;;16.20;100.00;101919.56;5070840;28;20110;-58
2022/07/07 06:56:56;;;;;;;6.80;1.75;;;;;;;16.28;100.00;101919.84;5068987;28;20118;-59
2022/07/07 06:59:24;;;;;;;8.05;1.98;;;;;;;16.38;100.00;101915.56;5071424;28;20037;-58
2022/07/07 07:01:52;;;;;;;8.65;1.42;;;;;;;16.39;100.00;101917.25;5071847;28;20071;-59
2022/07/07 07:04:20;;;;;;;9.30;1.50;;;;;;;16.52;100.00;101924.31;5072080;28;20079;-58
2022/07/07 07:06:48;;;;;;;10.68;1.55;;;;;;;16.67;100.00;101915.22;5072273;28;20044;-59
2022/07/07 07:09:16;;;;;;;9.00;1.92;;;;;;;16.93;100.00;101915.09;5072345;28;20071;-58
2022/07/07 07:11:46;;;;;;;6.57;1.40;;;;;;;17.03;100.00;101918.78;5069367;28;20052;-55
2022/07/07 07:14:14;;;;;;;10.45;1.90;;;;;;;17.12;100.00;101919.88;5068368;28;20052;-51
2022/07/07 07:16:42;;;;;;;6.32;1.27;;;;;;;17.08;100.00;101915.75;5073656;28;20053;-59
2022/07/07 07:19:11;;;;;;;7.20;1.50;;;;;;;17.21;100.00;101921.84;5074865;28;20044;-51
2022/07/07 07:21:39;;;;;;;5.82;1.30;;;;;;;17.24;100.00;101934.06;5072188;28;20048;-52
2022/07/07 07:24:08;;;;;;;5.78;1.25;;;;;;;17.24;100.00;101936.72;5073249;28;20040;-51
2022/07/07 07:26:36;;;;;;;6.60;1.38;;;;;;;17.36;100.00;101932.28;5075265;28;20040;-50
2022/07/07 07:29:11;;;;;;;9.02;1.52;;;;;;;17.28;100.00;101940.81;5075368;28;20047;-53
2022/07/07 07:31:39;;;;;;;7.38;1.20;;;;;;;17.20;100.00;101951.19;5075116;28;20044;-52
2022/07/07 07:34:08;;;;;;;8.43;1.40;;;;;;;17.09;100.00;101949.34;5075035;28;20510;-52
2022/07/07 07:36:36;;;;;;;7.28;1.30;;;;;;;17.07;100.00;101953.94;5056755;28;20055;-59
2022/07/07 07:39:04;;;;;;;5.35;1.50;;;;;;;17.02;100.00;101954.28;5055365;28;20064;-58
2022/07/07 07:41:32;;;;;;;5.30;1.20;;;;;;;16.94;100.00;101958.47;5055599;28;20110;-58
2022/07/07 07:44:00;;;;;;;5.28;1.55;;;;;;;16.98;100.00;101962.59;5054974;28;20526;-58
2022/07/07 07:46:30;;;;;;;5.82;1.10;;;;;;;17.11;100.00;101967.84;5053726;28;20053;-59
2022/07/07 07:49:00;;;;;;;5.78;1.00;;;;;;;17.11;100.00;101973.16;5057555;28;20052;-58
2022/07/07 07:51:28;;;;;;;5.82;1.40;;;;;;;16.97;100.00;101971.53;5079810;28;20062;-54
2022/07/07 07:53:56;;;;;;;6.00;1.10;;;;;;;16.87;100.00;101974.00;5074261;28;20158;-52
2022/07/07 07:56:24;;;;;;;4.43;1.02;;;;;;;16.91;100.00;101978.16;5070081;28;20032;-53
2022/07/07 07:58:52;;;;;;;4.93;1.17;;;;;;;16.80;100.00;101975.41;5078375;28;20532;-57
2022/07/07 08:01:20;;;;;;;6.18;1.10;;;;;;;17.03;100.00;101974.59;5070344;28;20478;-58
2022/07/07 08:03:49;;;;;;;7.15;1.55;;;;;;;17.12;100.00;101966.88;5073218;28;20543;-51
2022/07/07 08:06:18;;;;;;;4.65;1.00;;;;;;;17.21;100.00;101975.00;5073049;28;20080;-52
2022/07/07 08:08:46;;;;;;;6.10;1.30;;;;;;;17.27;100.00;101972.84;5054254;28;20446;-58
2022/07/07 08:11:14;;;;;;;4.95;1.00;;;;;;;17.33;100.00;101983.88;5053539;28;20385;-52
2022/07/07 08:13:42;;;;;;;3.75;0.90;;;;;;;17.63;100.00;101990.47;5048996;28;20068;-54
2022/07/07 08:16:10;;;;;;;5.97;1.25;;;;;;;17.79;100.00;101994.59;5052348;28;20052;-58
2022/07/07 08:18:38;;;;;;;4.38;1.10;;;;;;;17.82;100.00;101989.88;5051657;28;20064;-58
2022/07/07 08:21:07;;;;;;;4.43;1.33;;;;;;;17.96;100.00;101995.97;5052492;28;20114;-52
2022/07/07 08:23:36;;;;;;;6.35;1.55;;;;;;;18.02;100.00;102006.97;5053633;28;20076;-57
2022/07/07 08:26:04;;;;;;;5.07;0.95;;;;;;;17.83;100.00;101998.69;5053858;28;20503;-54
2022/07/07 08:28:32;;;;;;;4.28;0.88;;;;;;;17.79;100.00;101994.59;5053609;28;20045;-51
2022/07/07 08:31:07;;;;;;;5.18;1.10;;;;;;;17.94;100.00;102004.06;5054343;28;20132;-58
2022/07/07 08:33:36;;;;;;;4.35;1.20;;;;;;;17.89;100.00;102000.91;5055031;28;20041;-58
2022/07/07 08:36:04;;;;;;;6.32;1.13;;;;;;;17.71;100.00;101993.38;5053607;28;20052;-58
2022/07/07 08:38:34;;;;;;;7.68;1.42;;;;;;;17.71;100.00;101998.69;5053727;28;20056;-57
2022/07/07 08:41:02;;;;;;;9.10;1.58;;;;;;;17.97;100.00;102005.63;5054403;28;20123;-58
2022/07/07 08:43:30;;;;;;;5.32;1.33;;;;;;;18.18;100.00;102006.59;5054544;28;20048;-58
2022/07/07 08:45:59;;;;;;;5.75;1.33;;;;;;;18.45;100.00;102009.84;5051351;28;20495;-54
2022/07/07 08:48:27;;;;;;;6.55;1.23;;;;;;;18.48;100.00;102012.28;5052230;28;20357;-58
2022/07/07 08:50:56;;;;;;;7.70;1.70;;;;;;;18.21;100.00;102022.31;5054577;28;20063;-54
2022/07/07 08:53:24;;;;;;;8.00;1.40;;;;;;;18.21;100.00;102016.16;5053721;28;20061;-58
2022/07/07 08:56:05;;;;;;;3.75;1.17;;;;;;;18.28;100.00;102017.38;5054408;28;20049;-53
2022/07/07 08:58:35;;;;;;;5.80;1.25;;;;;;;18.41;100.00;102023.41;5053054;28;20119;-52
2022/07/07 09:01:24;;;;;;;3.28;1.05;;;;;;;18.84;100.00;102023.56;5053659;28;20411;-57
2022/07/07 09:03:52;;;;;;;5.88;1.23;;;;;;;19.22;100.00;102031.13;5053437;28;20118;-58
2022/07/07 09:06:20;;;;;;;7.95;1.30;;;;;;;19.18;99.06;102026.16;5050572;28;20068;-58
2022/07/07 09:08:52;;;;;;;5.47;1.08;;;;;;;19.16;97.09;102033.44;5052694;28;20049;-58
2022/07/07 09:11:28;;;;;;;5.55;0.98;;;;;;;19.04;95.92;102029.97;5053604;28;20049;-49
2022/07/07 09:13:59;;;;;;;4.93;0.80;;;;;;;19.00;95.68;102042.69;5053262;28;20045;-52
2022/07/07 09:16:36;;;;;;;5.25;0.98;;;;;;;18.60;96.09;102040.59;5053491;28;20447;-57
2022/07/07 09:19:09;;;;;;;4.78;1.20;;;;;;;18.43;97.70;102047.25;5052643;28;20060;-51
2022/07/07 09:21:37;;;;;;;6.18;1.13;;;;;;;18.60;99.99;102051.25;5053412;28;20072;-58
2022/07/07 09:24:06;;;;;;;4.80;1.02;;;;;;;18.52;97.62;102057.19;5053343;28;20059;-54
2022/07/07 09:26:38;;;;;;;3.80;0.82;;;;;;;18.51;95.11;102063.47;5047985;28;20056;-54
2022/07/07 09:29:08;;;;;;;5.85;1.02;;;;;;;18.87;97.15;102058.81;5050915;28;20049;-50
2022/07/07 09:31:54;;;;;;;3.90;0.90;;;;;;;19.12;95.24;102070.16;5053045;28;20045;-52
2022/07/07 09:34:25;;;;;;;6.28;1.00;;;;;;;19.05;92.87;102068.97;5053662;28;20049;-58
2022/07/07 09:39:44;;;;;;;3.97;0.95;;;;;;;19.36;91.45;102077.09;5050360;28;20065;-58
2022/07/07 09:42:34;;;;;;;3.78;0.75;;;;;;;19.63;91.47;102081.94;5051448;28;20116;-58
2022/07/07 09:45:05;;;;;;;5.03;0.90;;;;;;;19.78;88.18;102082.47;5051118;28;20048;-58
2022/07/07 09:47:33;;;;;;;4.63;1.00;;;;;;;19.84;88.31;102078.47;5051856;28;20037;-59
2022/07/07 09:50:09;;;;;;;3.13;0.75;;;;;;;19.73;90.24;102093.53;5052058;28;20037;-51
2022/07/07 09:52:41;;;;;;;4.30;0.80;;;;;;;19.61;95.63;102094.56;5048740;28;20072;-48
2022/07/07 09:55:11;;;;;;;1.27;0.60;;;;;;;19.40;95.32;102108.72;5051978;28;20099;-58
2022/07/07 09:57:42;;;;;;;2.53;0.63;;;;;;;19.33;96.71;102112.03;5052835;28;20099;-53
2022/07/07 10:00:11;;;;;;;2.88;0.70;;;;;;;19.28;91.32;102106.22;5052974;28;20416;-57
2022/07/07 10:02:41;;;;;;;1.70;0.60;;;;;;;18.97;91.80;102116.75;5052209;28;20064;-57
2022/07/07 10:05:09;;;;;;;3.42;0.55;;;;;;;19.20;93.33;102113.03;5049019;28;20552;-51
2022/07/07 10:07:38;;;;;;;4.78;0.85;;;;;;;19.47;95.28;102122.41;5052522;28;20381;-57
2022/07/07 10:10:10;;;;;;;3.38;0.73;;;;;;;19.42;90.29;102128.09;5052259;28;20044;-49
2022/07/07 10:12:43;;;;;;;2.03;0.82;;;;;;;19.38;89.10;102137.34;5052228;28;20106;-49
2022/07/07 10:15:12;;;;;;;2.38;0.75;;;;;;;19.38;91.76;102132.00;5053299;28;20385;-57
2022/07/07 10:17:42;;;;;;;2.80;0.60;;;;;;;19.30;91.01;102126.47;5052845;28;20072;-57
2022/07/07 10:20:11;;;;;;;5.47;0.90;;;;;;;19.39;91.91;102130.22;5052758;28;20044;-58
2022/07/07 10:22:41;;;;;;;3.83;0.85;;;;;;;19.54;92.02;102133.41;5052660;28;20061;-57
2022/07/07 10:25:11;;;;;;;4.38;0.93;;;;;;;19.74;91.02;102137.94;5050098;28;20094;-52
2022/07/07 10:27:42;;;;;;;1.70;0.70;;;;;;;19.96;89.14;102137.97;5048023;28;20049;-57
2022/07/07 10:30:28;;;;;;;3.83;1.00;;;;;;;20.08;88.95;102132.44;5051519;28;20041;-56
2022/07/07 10:32:57;;;;;;;2.97;1.00;;;;;;;19.92;88.05;102130.22;5052288;28;20049;-57
2022/07/07 10:35:25;;;;;;;1.77;0.65;;;;;;;20.03;86.58;102150.66;5051375;28;20049;-56
2022/07/07 10:37:55;;;;;;;4.38;0.85;;;;;;;19.72;84.63;102144.38;5050650;28;20060;-57
2022/07/07 10:40:25;;;;;;;3.35;0.65;;;;;;;19.99;84.73;102164.38;5051211;28;20048;-56
2022/07/07 10:43:11;;;;;;;1.63;0.60;;;;;;;19.81;84.99;102161.47;5049342;28;20052;-56
2022/07/07 10:45:45;;;;;;;2.13;0.55;;;;;;;19.89;85.67;102169.66;5048364;28;20049;-57
2022/07/07 10:48:40;;;;;;;3.42;0.90;;;;;;;19.75;86.75;102163.63;5052490;28;20389;-58
2022/07/07 10:51:23;;;;;;;3.20;0.88;;;;;;;19.88;86.74;102168.00;5055293;28;20048;-52
2022/07/07 10:54:02;;;;;;;2.88;0.90;;;;;;;19.82;88.41;102173.84;5055992;28;20061;-57
2022/07/07 10:57:12;;;;;;;3.83;0.90;;;;;;;19.83;87.03;102168.38;5056166;28;20120;-51
2022/07/07 11:00:15;;;;;;;2.65;1.02;;;;;;;19.81;86.88;102175.66;5055587;28;20563;-52
2022/07/07 11:02:47;;;;;;;2.67;0.70;;;;;;;19.91;87.52;102191.75;5056273;28;20384;-58
2022/07/07 11:05:32;;;;;;;4.75;0.70;;;;;;;19.75;86.01;102189.47;5056478;28;20052;-54
2022/07/07 11:08:10;;;;;;;2.67;0.77;;;;;;;20.25;86.41;102175.53;5055829;28;20053;-57
2022/07/07 11:10:47;;;;;;;2.22;0.75;;;;;;;20.52;83.68;102176.78;5056348;28;20049;-57
2022/07/07 11:13:18;;;;;;;2.72;0.68;;;;;;;20.98;83.34;102172.78;5055852;28;20052;-50
2022/07/07 11:15:50;;;;;;;3.92;1.08;;;;;;;20.90;80.54;102175.28;5056266;28;20048;-52
2022/07/07 11:18:19;;;;;;;5.60;1.08;;;;;;;21.05;81.20;102176.63;5055828;28;20396;-55
2022/07/07 11:20:58;;;;;;;5.05;1.00;;;;;;;20.94;81.67;102190.09;5055477;28;20547;-50
2022/07/07 11:23:28;;;;;;;2.47;0.90;;;;;;;20.83;81.96;102195.53;5054578;28;20462;-58
2022/07/07 11:25:58;;;;;;;4.00;1.10;;;;;;;20.05;88.02;102212.78;5055455;28;20064;-50
2022/07/07 11:28:27;;;;;;;5.20;1.25;;;;;;;19.76;92.58;102213.38;5055546;28;20065;-57
2022/07/07 11:31:05;;;;;;;4.13;1.10;;;;;;;19.83;94.98;102220.91;5055199;28;20041;-52
2022/07/07 11:33:34;;;;;;;2.17;0.90;;;;;;;19.96;94.82;102221.59;5053912;28;20084;-56